createdAt,value
2018-10-05T00:00:34.870Z,0.00
2018-10-05T00:01:34.857Z,0.00
2018-10-05T00:02:34.847Z,0.00
2018-10-05T00:03:34.850Z,0.00
2018-10-05T00:04:34.824Z,0.00
2018-10-05T00:05:34.826Z,0.00
2018-10-05T00:06:34.829Z,0.00
2018-10-05T00:07:34.798Z,0.00
2018-10-05T00:08:34.799Z,0.00
2018-10-05T00:09:34.775Z,0.00
2018-10-05T00:10:34.761Z,0.00
2018-10-05T00:11:34.752Z,0.00
2018-10-05T00:12:34.823Z,0.00
2018-10-05T00:13:34.744Z,0.00
2018-10-05T00:14:34.720Z,0.00
2018-10-05T00:15:34.709Z,0.00
2018-10-05T00:16:34.697Z,0.00
2018-10-05T00:17:34.692Z,0.00
2018-10-05T00:18:34.712Z,0.00
2018-10-05T00:19:34.666Z,0.00
2018-10-05T00:20:34.728Z,0.00
2018-10-05T00:21:34.645Z,0.00
2018-10-05T00:22:34.636Z,0.00
2018-10-05T00:23:34.623Z,0.00
2018-10-05T00:24:34.650Z,0.00
2018-10-05T00:25:34.603Z,0.00
2018-10-05T00:26:34.593Z,0.00
2018-10-05T00:27:34.581Z,0.00
2018-10-05T00:28:34.567Z,0.00
2018-10-05T00:29:34.572Z,0.00
2018-10-05T00:30:34.558Z,0.00
2018-10-05T00:31:34.541Z,0.00
2018-10-05T00:32:34.600Z,0.00
2018-10-05T00:33:34.526Z,0.00
2018-10-05T00:34:34.521Z,0.00
2018-10-05T00:35:34.494Z,0.00
2018-10-05T00:36:34.497Z,0.00
2018-10-05T00:37:34.474Z,0.00
2018-10-05T00:38:34.474Z,0.00
2018-10-05T00:39:34.468Z,0.00
2018-10-05T00:40:34.440Z,0.00
2018-10-05T00:41:34.429Z,0.00
2018-10-05T00:42:34.439Z,0.00
2018-10-05T00:43:34.409Z,0.00
2018-10-05T00:44:34.411Z,0.00
2018-10-05T00:45:34.409Z,0.00
2018-10-05T00:46:34.377Z,0.00
2018-10-05T00:47:34.366Z,0.00
2018-10-05T00:48:34.381Z,0.00
2018-10-05T00:49:34.357Z,0.00
2018-10-05T00:50:34.334Z,0.00
2018-10-05T00:51:34.348Z,0.00
2018-10-05T00:52:34.313Z,0.00
2018-10-05T00:53:34.406Z,0.00
2018-10-05T00:54:34.323Z,0.00
2018-10-05T00:55:34.284Z,0.00
2018-10-05T00:56:34.270Z,0.00
2018-10-05T00:57:34.262Z,0.00
2018-10-05T00:58:34.248Z,0.00
2018-10-05T00:59:34.255Z,0.00
2018-10-05T01:00:34.256Z,0.00
2018-10-05T01:01:34.252Z,0.00
2018-10-05T01:02:34.207Z,0.00
2018-10-05T01:03:34.198Z,0.00
2018-10-05T01:04:34.197Z,0.00
2018-10-05T01:05:34.177Z,0.00
2018-10-05T01:06:34.177Z,0.00
2018-10-05T01:07:34.154Z,0.00
2018-10-05T01:08:34.141Z,0.00
2018-10-05T01:09:34.149Z,0.00
2018-10-05T01:10:34.119Z,0.00
2018-10-05T01:11:34.272Z,0.00
2018-10-05T01:12:34.116Z,0.00
2018-10-05T01:13:34.089Z,0.00
2018-10-05T01:14:34.093Z,0.00
2018-10-05T01:15:34.069Z,0.00
2018-10-05T01:16:34.057Z,0.00
2018-10-05T01:17:34.047Z,0.00
2018-10-05T01:18:34.050Z,0.00
2018-10-05T01:19:34.038Z,0.00
2018-10-05T01:20:34.012Z,0.00
2018-10-05T01:21:34.003Z,0.00
2018-10-05T01:22:33.992Z,0.00
2018-10-05T01:23:33.983Z,0.00
2018-10-05T01:24:34.002Z,0.00
2018-10-05T01:25:33.961Z,0.00
2018-10-05T01:26:33.949Z,0.00
2018-10-05T01:27:33.939Z,0.00
2018-10-05T01:28:33.928Z,0.00
2018-10-05T01:29:33.932Z,0.00
2018-10-05T01:30:33.929Z,0.00
2018-10-05T01:31:33.896Z,0.00
2018-10-05T01:32:33.883Z,0.00
2018-10-05T01:33:33.873Z,0.00
2018-10-05T01:34:33.878Z,0.00
2018-10-05T01:35:33.852Z,0.00
2018-10-05T01:36:33.862Z,0.00
2018-10-05T01:37:33.830Z,0.00
2018-10-05T01:38:33.820Z,0.00
2018-10-05T01:39:33.829Z,0.00
2018-10-05T01:40:33.801Z,0.00
2018-10-05T01:41:33.790Z,0.00
2018-10-05T01:42:33.796Z,0.00
2018-10-05T01:43:33.766Z,0.00
2018-10-05T01:44:33.771Z,0.00
2018-10-05T01:45:33.752Z,0.00
2018-10-05T01:46:33.735Z,0.00
2018-10-05T01:47:33.725Z,0.00
2018-10-05T01:48:33.728Z,0.00
2018-10-05T01:49:33.715Z,0.00
2018-10-05T01:50:33.693Z,0.00
2018-10-05T01:51:33.684Z,0.00
2018-10-05T01:52:33.677Z,0.00
2018-10-05T01:53:33.659Z,0.00
2018-10-05T01:54:33.675Z,0.00
2018-10-05T01:55:33.654Z,0.00
2018-10-05T01:56:33.630Z,0.00
2018-10-05T01:57:33.616Z,0.00
2018-10-05T01:58:33.607Z,0.00
2018-10-05T01:59:33.626Z,0.00
2018-10-05T02:00:33.587Z,0.00
2018-10-05T02:01:33.591Z,0.00
2018-10-05T02:02:33.611Z,0.00
2018-10-05T02:03:33.595Z,0.00
2018-10-05T02:04:33.542Z,0.00
2018-10-05T02:05:33.545Z,0.00
2018-10-05T02:06:33.521Z,0.00
2018-10-05T02:07:33.525Z,0.00
2018-10-05T02:08:33.499Z,0.00
2018-10-05T02:09:33.490Z,0.00
2018-10-05T02:10:33.493Z,0.00
2018-10-05T02:11:33.468Z,0.00
2018-10-05T02:12:33.494Z,0.00
2018-10-05T02:13:33.446Z,0.00
2018-10-05T02:14:33.436Z,0.00
2018-10-05T02:15:33.439Z,0.00
2018-10-05T02:16:33.416Z,0.00
2018-10-05T02:17:33.405Z,0.00
2018-10-05T02:18:33.414Z,0.00
2018-10-05T02:19:33.381Z,0.00
2018-10-05T02:20:33.385Z,0.00
2018-10-05T02:21:33.363Z,0.00
2018-10-05T02:22:33.371Z,0.00
2018-10-05T02:23:33.341Z,0.00
2018-10-05T02:24:33.340Z,0.00
2018-10-05T02:25:33.356Z,0.00
2018-10-05T02:26:33.309Z,0.00
2018-10-05T02:27:33.353Z,0.00
2018-10-05T02:28:33.287Z,0.00
2018-10-05T02:29:33.276Z,0.00
2018-10-05T02:30:33.282Z,0.00
2018-10-05T02:31:33.270Z,0.00
2018-10-05T02:32:33.266Z,0.00
2018-10-05T02:33:33.238Z,0.00
2018-10-05T02:34:33.228Z,0.00
2018-10-05T02:35:33.227Z,0.00
2018-10-05T02:36:33.203Z,0.00
2018-10-05T02:37:33.221Z,0.00
2018-10-05T02:38:33.184Z,0.00
2018-10-05T02:39:33.177Z,0.00
2018-10-05T02:40:33.176Z,0.00
2018-10-05T02:41:33.193Z,0.00
2018-10-05T02:42:33.141Z,0.00
2018-10-05T02:43:33.148Z,0.00
2018-10-05T02:44:33.118Z,0.00
2018-10-05T02:45:33.122Z,0.00
2018-10-05T02:46:33.099Z,0.00
2018-10-05T02:47:33.087Z,0.00
2018-10-05T02:48:33.079Z,0.00
2018-10-05T02:49:33.090Z,0.00
2018-10-05T02:50:33.069Z,0.00
2018-10-05T02:51:33.045Z,0.00
2018-10-05T02:52:33.034Z,0.00
2018-10-05T02:53:33.029Z,0.00
2018-10-05T02:54:33.013Z,0.00
2018-10-05T02:55:33.038Z,0.00
2018-10-05T02:56:32.993Z,0.00
2018-10-05T02:57:32.981Z,0.00
2018-10-05T02:58:32.979Z,0.00
2018-10-05T02:59:32.964Z,0.00
2018-10-05T03:00:32.967Z,0.00
2018-10-05T03:01:32.953Z,0.00
2018-10-05T03:02:32.928Z,0.00
2018-10-05T03:03:32.916Z,0.00
2018-10-05T03:04:32.909Z,0.00
2018-10-05T03:05:32.920Z,0.00
2018-10-05T03:06:32.885Z,0.00
2018-10-05T03:07:32.905Z,0.00
2018-10-05T03:08:32.864Z,0.00
2018-10-05T03:09:32.854Z,0.00
2018-10-05T03:10:32.845Z,0.00
2018-10-05T03:11:32.846Z,0.00
2018-10-05T03:12:32.822Z,0.00
2018-10-05T03:13:32.826Z,0.00
2018-10-05T03:14:32.805Z,0.00
2018-10-05T03:15:32.788Z,0.00
2018-10-05T03:16:32.791Z,0.00
2018-10-05T03:17:32.767Z,0.00
2018-10-05T03:18:32.755Z,0.00
2018-10-05T03:19:32.761Z,0.00
2018-10-05T03:20:32.741Z,0.00
2018-10-05T03:21:32.739Z,0.00
2018-10-05T03:22:32.715Z,0.00
2018-10-05T03:23:32.702Z,0.00
2018-10-05T03:24:32.694Z,0.00
2018-10-05T03:25:32.704Z,0.00
2018-10-05T03:26:32.688Z,0.00
2018-10-05T03:27:32.661Z,0.00
2018-10-05T03:28:32.649Z,0.00
2018-10-05T03:29:32.638Z,0.00
2018-10-05T03:30:32.635Z,0.00
2018-10-05T03:31:32.652Z,0.00
2018-10-05T03:32:32.607Z,0.00
2018-10-05T03:33:32.599Z,0.00
2018-10-05T03:34:32.586Z,0.00
2018-10-05T03:35:32.573Z,0.00
2018-10-05T03:36:32.579Z,0.00
2018-10-05T03:37:32.580Z,0.00
2018-10-05T03:38:32.542Z,0.00
2018-10-05T03:39:32.530Z,0.00
2018-10-05T03:40:32.522Z,0.00
2018-10-05T03:41:32.524Z,0.00
2018-10-05T03:42:32.500Z,0.00
2018-10-05T03:43:32.499Z,0.00
2018-10-05T03:44:32.477Z,0.00
2018-10-05T03:45:32.466Z,0.00
2018-10-05T03:46:32.473Z,0.00
2018-10-05T03:47:32.446Z,0.00
2018-10-05T03:48:32.434Z,0.00
2018-10-05T03:49:32.455Z,0.00
2018-10-05T03:50:32.423Z,0.00
2018-10-05T03:51:32.419Z,0.00
2018-10-05T03:52:32.393Z,0.00
2018-10-05T03:53:32.382Z,0.00
2018-10-05T03:54:32.370Z,0.00
2018-10-05T03:55:32.390Z,0.00
2018-10-05T03:56:32.381Z,0.00
2018-10-05T03:57:32.338Z,0.00
2018-10-05T03:58:32.328Z,0.00
2018-10-05T03:59:32.322Z,0.00
2018-10-05T04:00:32.343Z,0.00
2018-10-05T04:01:32.320Z,0.00
2018-10-05T04:02:32.302Z,0.00
2018-10-05T04:03:32.276Z,0.00
2018-10-05T04:04:32.269Z,0.00
2018-10-05T04:05:32.260Z,0.00
2018-10-05T04:06:32.248Z,0.00
2018-10-05T04:07:32.275Z,0.00
2018-10-05T04:08:32.228Z,0.00
2018-10-05T04:09:32.216Z,0.00
2018-10-05T04:10:32.210Z,0.00
2018-10-05T04:11:32.194Z,0.00
2018-10-05T04:12:32.196Z,0.00
2018-10-05T04:13:32.203Z,0.00
2018-10-05T04:14:32.161Z,0.00
2018-10-05T04:15:32.152Z,0.00
2018-10-05T04:16:32.141Z,0.00
2018-10-05T04:17:32.148Z,0.00
2018-10-05T04:18:32.119Z,0.00
2018-10-05T04:19:32.142Z,0.00
2018-10-05T04:20:32.103Z,0.00
2018-10-05T04:21:32.093Z,0.00
2018-10-05T04:22:32.094Z,0.00
2018-10-05T04:23:32.068Z,0.00
2018-10-05T04:24:32.056Z,0.00
2018-10-05T04:25:32.072Z,0.00
2018-10-05T04:26:32.038Z,0.00
2018-10-05T04:27:32.042Z,0.00
2018-10-05T04:28:32.016Z,0.00
2018-10-05T04:29:32.006Z,0.00
2018-10-05T04:30:31.995Z,0.00
2018-10-05T04:31:32.004Z,0.00
2018-10-05T04:32:32.000Z,0.00
2018-10-05T04:33:31.964Z,0.00
2018-10-05T04:34:31.953Z,0.00
2018-10-05T04:35:32.006Z,0.00
2018-10-05T04:36:31.935Z,0.00
2018-10-05T04:37:31.953Z,0.00
2018-10-05T04:38:31.913Z,0.00
2018-10-05T04:39:31.901Z,0.00
2018-10-05T04:40:31.890Z,0.00
2018-10-05T04:41:31.878Z,0.00
2018-10-05T04:42:31.895Z,0.00
2018-10-05T04:43:31.888Z,0.00
2018-10-05T04:44:31.847Z,0.00
2018-10-05T04:45:31.839Z,0.00
2018-10-05T04:46:31.872Z,0.00
2018-10-05T04:47:31.831Z,0.00
2018-10-05T04:48:31.806Z,0.00
2018-10-05T04:49:31.844Z,0.00
2018-10-05T04:50:31.785Z,0.00
2018-10-05T04:51:31.775Z,0.00
2018-10-05T04:52:31.787Z,0.00
2018-10-05T04:53:31.752Z,0.00
2018-10-05T04:54:31.748Z,0.00
2018-10-05T04:55:31.760Z,0.00
2018-10-05T04:56:31.739Z,0.00
2018-10-05T04:57:31.715Z,0.00
2018-10-05T04:58:31.719Z,0.00
2018-10-05T04:59:31.737Z,0.00
2018-10-05T05:00:31.680Z,0.00
2018-10-05T05:01:31.688Z,0.00
2018-10-05T05:02:31.657Z,0.00
2018-10-05T05:03:31.679Z,0.00
2018-10-05T05:04:31.635Z,0.00
2018-10-05T05:05:31.625Z,0.00
2018-10-05T05:06:31.615Z,0.00
2018-10-05T05:07:31.632Z,0.00
2018-10-05T05:08:31.607Z,0.00
2018-10-05T05:09:31.582Z,0.00
2018-10-05T05:10:31.573Z,0.00
2018-10-05T05:11:31.562Z,0.00
2018-10-05T05:12:31.551Z,0.00
2018-10-05T05:13:31.589Z,0.00
2018-10-05T05:14:31.534Z,0.00
2018-10-05T05:15:31.520Z,0.00
2018-10-05T05:16:31.512Z,0.00
2018-10-05T05:17:31.497Z,0.00
2018-10-05T05:18:31.501Z,0.00
2018-10-05T05:19:31.538Z,0.00
2018-10-05T05:20:31.465Z,0.00
2018-10-05T05:21:31.490Z,0.00
2018-10-05T05:22:31.445Z,0.00
2018-10-05T05:23:31.446Z,0.00
2018-10-05T05:24:31.425Z,5.62
2018-10-05T05:25:31.422Z,5.62
2018-10-05T05:26:31.426Z,5.62
2018-10-05T05:27:31.393Z,5.62
2018-10-05T05:28:31.393Z,5.62
2018-10-05T05:29:31.371Z,11.25
2018-10-05T05:30:31.357Z,11.25
2018-10-05T05:31:31.348Z,11.25
2018-10-05T05:32:31.358Z,11.25
2018-10-05T05:33:31.412Z,11.25
2018-10-05T05:34:31.317Z,16.88
2018-10-05T05:35:31.309Z,16.88
2018-10-05T05:36:31.295Z,16.88
2018-10-05T05:37:31.283Z,22.50
2018-10-05T05:38:31.307Z,22.50
2018-10-05T05:39:31.264Z,22.50
2018-10-05T05:40:31.252Z,28.12
2018-10-05T05:41:31.241Z,28.12
2018-10-05T05:42:31.230Z,28.12
2018-10-05T05:43:31.238Z,33.75
2018-10-05T05:44:31.237Z,33.75
2018-10-05T05:45:31.197Z,33.75
2018-10-05T05:46:31.188Z,39.38
2018-10-05T05:47:31.177Z,39.38
2018-10-05T05:48:31.178Z,39.38
2018-10-05T05:49:31.156Z,45.00
2018-10-05T05:50:31.175Z,45.00
2018-10-05T05:51:31.135Z,50.62
2018-10-05T05:52:31.125Z,50.62
2018-10-05T05:53:31.126Z,50.62
2018-10-05T05:54:31.149Z,56.25
2018-10-05T05:55:31.093Z,56.25
2018-10-05T05:56:31.104Z,61.88
2018-10-05T05:57:31.071Z,61.88
2018-10-05T05:58:31.075Z,61.88
2018-10-05T05:59:31.053Z,67.50
2018-10-05T06:00:31.037Z,67.50
2018-10-05T06:01:31.026Z,73.12
2018-10-05T06:02:31.048Z,78.75
2018-10-05T06:03:31.024Z,78.75
2018-10-05T06:04:30.995Z,84.38
2018-10-05T06:05:30.984Z,84.38
2018-10-05T06:06:30.973Z,90.00
2018-10-05T06:07:30.966Z,90.00
2018-10-05T06:08:30.990Z,95.62
2018-10-05T06:09:30.944Z,95.62
2018-10-05T06:10:30.931Z,101.25
2018-10-05T06:11:30.920Z,101.25
2018-10-05T06:12:30.912Z,106.88
2018-10-05T06:13:30.915Z,106.88
2018-10-05T06:14:30.897Z,106.88
2018-10-05T06:15:30.877Z,112.50
2018-10-05T06:16:30.893Z,118.12
2018-10-05T06:17:30.855Z,118.12
2018-10-05T06:18:30.862Z,123.75
2018-10-05T06:19:30.834Z,129.38
2018-10-05T06:20:30.846Z,129.38
2018-10-05T06:21:30.898Z,129.38
2018-10-05T06:22:30.946Z,135.00
2018-10-05T06:23:30.812Z,135.00
2018-10-05T06:24:30.781Z,140.62
2018-10-05T06:25:30.777Z,146.25
2018-10-05T06:26:30.780Z,140.62
2018-10-05T06:27:30.790Z,146.25
2018-10-05T06:28:30.754Z,146.25
2018-10-05T06:29:30.730Z,151.88
2018-10-05T06:30:30.728Z,151.88
2018-10-05T06:31:30.706Z,157.50
2018-10-05T06:32:30.710Z,168.75
2018-10-05T06:33:30.705Z,168.75
2018-10-05T06:34:30.676Z,174.38
2018-10-05T06:35:30.666Z,168.75
2018-10-05T06:36:30.653Z,174.38
2018-10-05T06:37:30.643Z,180.00
2018-10-05T06:38:30.686Z,180.00
2018-10-05T06:39:30.622Z,180.00
2018-10-05T06:40:30.623Z,191.25
2018-10-05T06:41:30.600Z,191.25
2018-10-05T06:42:30.649Z,196.88
2018-10-05T06:43:30.595Z,196.88
2018-10-05T06:44:30.585Z,196.88
2018-10-05T06:45:30.559Z,202.50
2018-10-05T06:46:30.547Z,202.50
2018-10-05T06:47:30.538Z,202.50
2018-10-05T06:48:30.542Z,202.50
2018-10-05T06:49:30.515Z,202.50
2018-10-05T06:50:30.518Z,208.12
2018-10-05T06:51:30.495Z,208.12
2018-10-05T06:52:30.485Z,213.75
2018-10-05T06:53:30.487Z,213.75
2018-10-05T06:54:30.467Z,213.75
2018-10-05T06:55:30.476Z,213.75
2018-10-05T06:56:30.441Z,213.75
2018-10-05T06:57:30.430Z,219.38
2018-10-05T06:58:30.435Z,219.38
2018-10-05T06:59:30.408Z,219.38
2018-10-05T07:00:30.397Z,219.38
2018-10-05T07:01:30.464Z,219.38
2018-10-05T07:02:30.376Z,225.00
2018-10-05T07:03:30.377Z,225.00
2018-10-05T07:04:30.358Z,225.00
2018-10-05T07:05:30.343Z,236.25
2018-10-05T07:06:30.332Z,230.62
2018-10-05T07:07:30.358Z,230.62
2018-10-05T07:08:30.325Z,230.62
2018-10-05T07:09:30.301Z,236.25
2018-10-05T07:10:30.289Z,236.25
2018-10-05T07:11:30.318Z,236.25
2018-10-05T07:12:30.268Z,236.25
2018-10-05T07:13:30.292Z,241.88
2018-10-05T07:14:30.247Z,241.88
2018-10-05T07:15:30.242Z,241.88
2018-10-05T07:16:30.228Z,241.88
2018-10-05T07:17:30.214Z,247.50
2018-10-05T07:18:30.217Z,247.50
2018-10-05T07:19:30.207Z,247.50
2018-10-05T07:20:30.196Z,247.50
2018-10-05T07:21:30.259Z,253.12
2018-10-05T07:22:30.249Z,253.12
2018-10-05T07:23:30.172Z,253.12
2018-10-05T07:24:30.150Z,253.12
2018-10-05T07:25:30.145Z,258.75
2018-10-05T07:26:30.121Z,258.75
2018-10-05T07:27:30.153Z,258.75
2018-10-05T07:28:30.268Z,258.75
2018-10-05T07:29:30.092Z,264.38
2018-10-05T07:30:30.092Z,264.38
2018-10-05T07:31:30.066Z,264.38
2018-10-05T07:32:30.074Z,270.00
2018-10-05T07:33:30.058Z,270.00
2018-10-05T07:34:30.031Z,270.00
2018-10-05T07:35:30.034Z,270.00
2018-10-05T07:36:30.029Z,270.00
2018-10-05T07:37:30.089Z,275.62
2018-10-05T07:38:30.011Z,275.62
2018-10-05T07:39:29.978Z,275.62
2018-10-05T07:40:29.968Z,275.62
2018-10-05T07:41:29.976Z,275.62
2018-10-05T07:42:29.949Z,281.25
2018-10-05T07:43:29.951Z,281.25
2018-10-05T07:44:29.927Z,286.88
2018-10-05T07:45:29.912Z,286.88
2018-10-05T07:46:29.906Z,286.88
2018-10-05T07:47:29.899Z,292.50
2018-10-05T07:48:29.915Z,292.50
2018-10-05T07:49:29.891Z,292.50
2018-10-05T07:50:29.860Z,298.12
2018-10-05T07:51:29.850Z,298.12
2018-10-05T07:52:29.838Z,298.12
2018-10-05T07:53:29.827Z,303.75
2018-10-05T07:54:29.832Z,303.75
2018-10-05T07:55:29.815Z,303.75
2018-10-05T07:56:29.816Z,309.38
2018-10-05T07:57:29.884Z,315.00
2018-10-05T07:58:29.790Z,315.00
2018-10-05T07:59:29.817Z,320.62
2018-10-05T08:00:29.765Z,326.25
2018-10-05T08:01:29.755Z,326.25
2018-10-05T08:02:29.740Z,331.88
2018-10-05T08:03:29.735Z,343.12
2018-10-05T08:04:29.722Z,348.75
2018-10-05T08:05:29.704Z,365.62
2018-10-05T08:06:29.705Z,388.12
2018-10-05T08:07:29.686Z,450.00
2018-10-05T08:08:29.679Z,624.38
2018-10-05T08:09:29.711Z,759.38
2018-10-05T08:10:29.647Z,742.50
2018-10-05T08:11:29.635Z,607.50
2018-10-05T08:12:29.629Z,478.12
2018-10-05T08:13:29.628Z,489.38
2018-10-05T08:14:29.638Z,596.25
2018-10-05T08:15:29.613Z,720.00
2018-10-05T08:16:29.585Z,877.50
2018-10-05T08:17:29.592Z,1147.50
2018-10-05T08:18:29.563Z,1046.25
2018-10-05T08:19:29.603Z,1091.25
2018-10-05T08:20:29.583Z,1119.38
2018-10-05T08:21:29.604Z,1153.12
2018-10-05T08:22:29.543Z,1226.25
2018-10-05T08:23:29.512Z,1310.62
2018-10-05T08:24:29.513Z,1327.50
2018-10-05T08:25:29.503Z,1338.75
2018-10-05T08:26:29.522Z,1366.88
2018-10-05T08:27:29.468Z,1383.75
2018-10-05T08:28:29.467Z,1372.50
2018-10-05T08:29:29.481Z,1378.12
2018-10-05T08:30:29.454Z,1406.25
2018-10-05T08:31:29.434Z,1372.50
2018-10-05T08:32:29.422Z,1378.12
2018-10-05T08:33:29.402Z,1372.50
2018-10-05T08:34:29.444Z,1372.50
2018-10-05T08:35:29.395Z,1423.12
2018-10-05T08:36:29.363Z,1423.12
2018-10-05T08:37:29.372Z,1417.50
2018-10-05T08:38:29.369Z,1434.38
2018-10-05T08:39:29.360Z,1451.25
2018-10-05T08:40:29.342Z,1434.38
2018-10-05T08:41:29.333Z,1411.88
2018-10-05T08:42:29.329Z,1423.12
2018-10-05T08:43:29.292Z,1462.50
2018-10-05T08:44:29.304Z,1456.88
2018-10-05T08:45:29.309Z,1462.50
2018-10-05T08:46:29.259Z,1496.25
2018-10-05T08:47:29.268Z,1468.12
2018-10-05T08:48:29.238Z,1136.25
2018-10-05T08:49:29.272Z,590.62
2018-10-05T08:50:29.218Z,742.50
2018-10-05T08:51:29.255Z,1327.50
2018-10-05T08:52:29.207Z,1546.88
2018-10-05T08:53:29.188Z,1591.88
2018-10-05T08:54:29.188Z,1608.75
2018-10-05T08:55:29.159Z,1563.75
2018-10-05T08:56:29.165Z,1569.38
2018-10-05T08:57:29.137Z,1597.50
2018-10-05T08:58:29.145Z,1563.75
2018-10-05T08:59:29.142Z,1546.88
2018-10-05T09:00:29.172Z,1586.25
2018-10-05T09:01:29.103Z,1597.50
2018-10-05T09:02:29.086Z,1642.50
2018-10-05T09:03:29.077Z,1603.12
2018-10-05T09:04:29.081Z,1608.75
2018-10-05T09:05:29.060Z,1625.62
2018-10-05T09:06:29.043Z,1642.50
2018-10-05T09:07:29.029Z,1636.88
2018-10-05T09:08:29.024Z,1681.88
2018-10-05T09:09:29.036Z,1693.12
2018-10-05T09:10:29.022Z,1738.12
2018-10-05T09:11:28.999Z,1766.25
2018-10-05T09:12:28.990Z,1777.50
2018-10-05T09:13:28.968Z,1738.12
2018-10-05T09:14:28.975Z,1771.88
2018-10-05T09:15:28.969Z,1833.75
2018-10-05T09:16:28.954Z,1845.00
2018-10-05T09:17:28.937Z,1850.62
2018-10-05T09:18:28.922Z,1805.62
2018-10-05T09:19:28.927Z,1755.00
2018-10-05T09:20:28.901Z,1496.25
2018-10-05T09:21:28.889Z,855.00
2018-10-05T09:22:28.936Z,489.38
2018-10-05T09:23:28.881Z,523.12
2018-10-05T09:24:28.870Z,900.00
2018-10-05T09:25:28.844Z,1265.62
2018-10-05T09:26:28.829Z,1451.25
2018-10-05T09:27:28.834Z,1681.88
2018-10-05T09:28:28.812Z,1856.25
2018-10-05T09:29:28.824Z,1884.38
2018-10-05T09:30:28.815Z,1929.38
2018-10-05T09:31:28.780Z,1901.25
2018-10-05T09:32:28.791Z,1845.00
2018-10-05T09:33:28.761Z,1839.38
2018-10-05T09:34:28.765Z,1878.75
2018-10-05T09:35:28.748Z,1940.62
2018-10-05T09:36:28.736Z,2019.38
2018-10-05T09:37:28.742Z,2013.75
2018-10-05T09:38:28.715Z,2041.88
2018-10-05T09:39:29.437Z,2041.88
2018-10-05T09:40:28.719Z,2008.12
2018-10-05T09:41:29.293Z,2041.88
2018-10-05T09:42:28.662Z,1996.88
2018-10-05T09:43:28.650Z,1991.25
2018-10-05T09:44:28.657Z,2025.00
2018-10-05T09:45:28.635Z,1428.75
2018-10-05T09:46:28.617Z,669.38
2018-10-05T09:47:28.603Z,1372.50
2018-10-05T09:48:28.599Z,2053.12
2018-10-05T09:49:28.596Z,1873.12
2018-10-05T09:50:28.570Z,1591.88
2018-10-05T09:51:28.565Z,1676.25
2018-10-05T09:52:28.659Z,1951.88
2018-10-05T09:53:28.543Z,2025.00
2018-10-05T09:54:28.544Z,2025.00
2018-10-05T09:55:28.517Z,2047.50
2018-10-05T09:56:28.508Z,2120.62
2018-10-05T09:57:28.503Z,2188.12
2018-10-05T09:58:28.488Z,2176.88
2018-10-05T09:59:28.493Z,2137.50
2018-10-05T10:00:28.471Z,2109.38
2018-10-05T10:01:28.461Z,2143.12
2018-10-05T10:02:28.449Z,2047.50
2018-10-05T10:03:28.491Z,1338.75
2018-10-05T10:04:28.466Z,793.12
2018-10-05T10:05:28.442Z,1603.12
2018-10-05T10:06:28.409Z,2120.62
2018-10-05T10:07:28.398Z,2115.00
2018-10-05T10:08:28.491Z,2092.50
2018-10-05T10:09:28.394Z,2120.62
2018-10-05T10:10:28.361Z,2131.88
2018-10-05T10:11:28.355Z,2193.75
2018-10-05T10:12:28.342Z,2233.12
2018-10-05T10:13:28.339Z,2210.62
2018-10-05T10:14:28.351Z,2165.62
2018-10-05T10:15:28.308Z,2193.75
2018-10-05T10:16:28.300Z,2182.50
2018-10-05T10:17:28.289Z,2143.12
2018-10-05T10:18:28.276Z,1991.25
2018-10-05T10:19:28.283Z,1141.88
2018-10-05T10:20:28.259Z,1096.88
2018-10-05T10:21:28.255Z,1991.25
2018-10-05T10:22:28.294Z,2233.12
2018-10-05T10:23:28.228Z,2272.50
2018-10-05T10:24:28.237Z,2244.38
2018-10-05T10:25:28.219Z,2278.12
2018-10-05T10:26:28.200Z,2221.88
2018-10-05T10:27:28.236Z,2210.62
2018-10-05T10:28:28.224Z,2255.62
2018-10-05T10:29:28.211Z,2340.00
2018-10-05T10:30:28.174Z,2317.50
2018-10-05T10:31:28.148Z,2143.12
2018-10-05T10:32:28.143Z,1181.25
2018-10-05T10:33:28.138Z,1276.88
2018-10-05T10:34:28.182Z,2233.12
2018-10-05T10:35:28.112Z,2379.38
2018-10-05T10:36:28.098Z,2323.12
2018-10-05T10:37:28.136Z,2334.38
2018-10-05T10:38:28.073Z,2340.00
2018-10-05T10:39:28.081Z,2368.12
2018-10-05T10:40:28.052Z,2356.88
2018-10-05T10:41:28.044Z,1985.62
2018-10-05T10:42:28.067Z,1153.12
2018-10-05T10:43:28.024Z,1513.12
2018-10-05T10:44:28.027Z,1985.62
2018-10-05T10:45:28.005Z,973.12
2018-10-05T10:46:27.996Z,652.50
2018-10-05T10:47:27.979Z,663.75
2018-10-05T10:48:27.978Z,1192.50
2018-10-05T10:49:27.989Z,1119.38
2018-10-05T10:50:27.949Z,1198.12
2018-10-05T10:51:27.939Z,1501.88
2018-10-05T10:52:27.928Z,1811.25
2018-10-05T10:53:27.921Z,1327.50
2018-10-05T10:54:27.928Z,1490.62
2018-10-05T10:55:27.895Z,1653.75
2018-10-05T10:56:27.890Z,860.62
2018-10-05T10:57:27.884Z,551.25
2018-10-05T10:58:27.887Z,1035.00
2018-10-05T10:59:27.883Z,1732.50
2018-10-05T11:00:27.860Z,1305.00
2018-10-05T11:01:27.834Z,573.75
2018-10-05T11:02:27.825Z,489.38
2018-10-05T11:03:27.822Z,450.00
2018-10-05T11:04:27.856Z,354.38
2018-10-05T11:05:27.794Z,343.12
2018-10-05T11:06:27.785Z,343.12
2018-10-05T11:07:27.783Z,360.00
2018-10-05T11:08:27.763Z,517.50
2018-10-05T11:09:27.768Z,579.38
2018-10-05T11:10:27.736Z,1198.12
2018-10-05T11:11:27.736Z,1715.62
2018-10-05T11:12:27.727Z,1451.25
2018-10-05T11:13:27.709Z,1293.75
2018-10-05T11:14:27.713Z,1271.25
2018-10-05T11:15:27.695Z,1940.62
2018-10-05T11:16:27.681Z,2098.12
2018-10-05T11:17:27.683Z,1597.50
2018-10-05T11:18:27.654Z,2115.00
2018-10-05T11:19:27.659Z,1856.25
2018-10-05T11:20:27.641Z,866.25
2018-10-05T11:21:27.624Z,365.62
2018-10-05T11:22:27.618Z,337.50
2018-10-05T11:23:27.606Z,331.88
2018-10-05T11:24:27.605Z,331.88
2018-10-05T11:25:27.587Z,326.25
2018-10-05T11:26:27.582Z,320.62
2018-10-05T11:27:27.562Z,320.62
2018-10-05T11:28:27.553Z,320.62
2018-10-05T11:29:27.573Z,326.25
2018-10-05T11:30:27.541Z,365.62
2018-10-05T11:31:27.527Z,821.25
2018-10-05T11:32:27.514Z,1985.62
2018-10-05T11:33:27.502Z,2396.25
2018-10-05T11:34:27.500Z,1755.00
2018-10-05T11:35:27.477Z,1738.12
2018-10-05T11:36:27.465Z,2250.00
2018-10-05T11:37:27.453Z,2176.88
2018-10-05T11:38:27.439Z,1023.75
2018-10-05T11:39:27.448Z,331.88
2018-10-05T11:40:27.429Z,320.62
2018-10-05T11:41:27.414Z,315.00
2018-10-05T11:42:27.399Z,309.38
2018-10-05T11:43:27.386Z,303.75
2018-10-05T11:44:27.399Z,309.38
2018-10-05T11:45:27.375Z,849.38
2018-10-05T11:46:27.424Z,624.38
2018-10-05T11:47:27.357Z,292.50
2018-10-05T11:48:27.336Z,292.50
2018-10-05T11:49:27.343Z,292.50
2018-10-05T11:50:27.316Z,292.50
2018-10-05T11:51:27.306Z,292.50
2018-10-05T11:52:27.339Z,292.50
2018-10-05T11:53:27.683Z,286.88
2018-10-05T11:54:27.395Z,286.88
2018-10-05T11:55:35.310Z,286.88
2018-10-05T11:56:27.249Z,286.88
2018-10-05T11:57:27.240Z,286.88
2018-10-05T11:58:27.231Z,281.25
2018-10-05T11:59:27.257Z,281.25
2018-10-05T12:00:27.256Z,281.25
2018-10-05T12:01:27.262Z,281.25
2018-10-05T12:02:27.293Z,281.25
2018-10-05T12:03:27.194Z,281.25
2018-10-05T12:04:27.199Z,275.62
2018-10-05T12:05:27.174Z,275.62
2018-10-05T12:06:27.166Z,275.62
2018-10-05T12:07:27.164Z,275.62
2018-10-05T12:08:27.122Z,275.62
2018-10-05T12:09:27.109Z,275.62
2018-10-05T12:10:27.112Z,275.62
2018-10-05T12:11:27.879Z,275.62
2018-10-05T12:12:27.075Z,270.00
2018-10-05T12:13:27.074Z,270.00
2018-10-05T12:14:27.082Z,270.00
2018-10-05T12:15:27.064Z,270.00
2018-10-05T12:16:27.038Z,270.00
2018-10-05T12:17:27.091Z,270.00
2018-10-05T12:18:27.060Z,270.00
2018-10-05T12:19:27.010Z,270.00
2018-10-05T12:20:27.048Z,264.38
2018-10-05T12:21:26.988Z,264.38
2018-10-05T12:22:26.971Z,264.38
2018-10-05T12:23:26.963Z,264.38
2018-10-05T12:24:26.950Z,264.38
2018-10-05T12:25:26.952Z,258.75
2018-10-05T12:26:26.953Z,258.75
2018-10-05T12:27:26.917Z,258.75
2018-10-05T12:28:26.911Z,258.75
2018-10-05T12:29:26.909Z,258.75
2018-10-05T12:30:26.937Z,258.75
2018-10-05T12:31:26.884Z,258.75
2018-10-05T12:32:26.864Z,258.75
2018-10-05T12:33:26.866Z,258.75
2018-10-05T12:34:26.863Z,258.75
2018-10-05T12:35:26.851Z,258.75
2018-10-05T12:36:26.823Z,258.75
2018-10-05T12:37:26.820Z,258.75
2018-10-05T12:38:26.809Z,258.75
2018-10-05T12:39:26.814Z,258.75
2018-10-05T12:40:26.802Z,258.75
2018-10-05T12:41:26.773Z,258.75
2018-10-05T12:42:26.761Z,253.12
2018-10-05T12:43:26.769Z,253.12
2018-10-05T12:44:26.739Z,253.12
2018-10-05T12:45:26.767Z,253.12